sensor_id;sensor_type;location;lat;lon;timestamp;P1;durP1;ratioP1;P2;durP2;ratioP2
54171;SDS011;40076;52.354;4.970;2022-10-16T00:01:22;7.50;;;1.73;;
54171;SDS011;40076;52.354;4.970;2022-10-16T00:03:49;6.20;;;1.70;;
54171;SDS011;40076;52.354;4.970;2022-10-16T00:06:18;4.43;;;1.30;;
54171;SDS011;40076;52.354;4.970;2022-10-16T00:08:45;6.97;;;1.42;;
54171;SDS011;40076;52.354;4.970;2022-10-16T00:11:13;5.28;;;1.50;;
54171;SDS011;40076;52.354;4.970;2022-10-16T00:13:41;7.68;;;1.92;;
54171;SDS011;40076;52.354;4.970;2022-10-16T00:16:07;4.57;;;1.27;;
54171;SDS011;40076;52.354;4.970;2022-10-16T00:18:34;6.38;;;1.70;;
54171;SDS011;40076;52.354;4.970;2022-10-16T00:21:02;6.15;;;1.60;;
54171;SDS011;40076;52.354;4.970;2022-10-16T00:23:38;7.75;;;1.65;;
54171;SDS011;40076;52.354;4.970;2022-10-16T00:26:07;6.47;;;1.42;;
54171;SDS011;40076;52.354;4.970;2022-10-16T00:28:34;5.75;;;1.77;;
54171;SDS011;40076;52.354;4.970;2022-10-16T00:31:04;5.70;;;1.80;;
54171;SDS011;40076;52.354;4.970;2022-10-16T00:33:31;5.97;;;2.03;;
54171;SDS011;40076;52.354;4.970;2022-10-16T00:36:00;4.60;;;1.63;;
54171;SDS011;40076;52.354;4.970;2022-10-16T00:38:26;6.10;;;1.73;;
54171;SDS011;40076;52.354;4.970;2022-10-16T00:40:51;4.80;;;1.73;;
54171;SDS011;40076;52.354;4.970;2022-10-16T00:46:14;5.43;;;2.30;;
54171;SDS011;40076;52.354;4.970;2022-10-16T00:48:44;6.65;;;1.70;;
54171;SDS011;40076;52.354;4.970;2022-10-16T00:51:13;6.43;;;1.60;;
54171;SDS011;40076;52.354;4.970;2022-10-16T00:53:39;6.20;;;1.80;;
54171;SDS011;40076;52.354;4.970;2022-10-16T00:56:05;8.07;;;1.95;;
54171;SDS011;40076;52.354;4.970;2022-10-16T00:58:30;8.35;;;1.70;;
54171;SDS011;40076;52.354;4.970;2022-10-16T01:00:56;5.80;;;1.80;;
54171;SDS011;40076;52.354;4.970;2022-10-16T01:03:23;6.15;;;2.22;;
54171;SDS011;40076;52.354;4.970;2022-10-16T01:05:54;6.35;;;1.85;;
54171;SDS011;40076;52.354;4.970;2022-10-16T01:13:59;8.20;;;1.83;;
54171;SDS011;40076;52.354;4.970;2022-10-16T01:16:52;6.40;;;1.80;;
54171;SDS011;40076;52.354;4.970;2022-10-16T01:19:36;6.25;;;2.10;;
54171;SDS011;40076;52.354;4.970;2022-10-16T01:22:14;6.43;;;2.10;;
54171;SDS011;40076;52.354;4.970;2022-10-16T01:24:45;8.18;;;2.10;;
54171;SDS011;40076;52.354;4.970;2022-10-16T01:27:19;6.50;;;1.75;;
54171;SDS011;40076;52.354;4.970;2022-10-16T01:29:52;6.35;;;1.60;;
54171;SDS011;40076;52.354;4.970;2022-10-16T01:35:26;4.50;;;1.48;;
54171;SDS011;40076;52.354;4.970;2022-10-16T01:38:02;5.05;;;1.45;;
54171;SDS011;40076;52.354;4.970;2022-10-16T01:40:32;6.30;;;1.20;;
54171;SDS011;40076;52.354;4.970;2022-10-16T01:43:00;4.43;;;1.10;;
54171;SDS011;40076;52.354;4.970;2022-10-16T01:45:30;5.05;;;1.15;;
54171;SDS011;40076;52.354;4.970;2022-10-16T01:47:57;2.95;;;1.10;;
54171;SDS011;40076;52.354;4.970;2022-10-16T01:50:25;4.40;;;1.23;;
54171;SDS011;40076;52.354;4.970;2022-10-16T01:52:52;4.90;;;1.30;;
54171;SDS011;40076;52.354;4.970;2022-10-16T01:55:25;5.28;;;1.73;;
54171;SDS011;40076;52.354;4.970;2022-10-16T01:57:55;4.22;;;1.30;;
54171;SDS011;40076;52.354;4.970;2022-10-16T02:00:24;5.72;;;1.42;;
54171;SDS011;40076;52.354;4.970;2022-10-16T02:02:52;3.88;;;1.50;;
54171;SDS011;40076;52.354;4.970;2022-10-16T02:05:20;6.70;;;1.70;;
54171;SDS011;40076;52.354;4.970;2022-10-16T02:07:51;4.30;;;1.80;;
54171;SDS011;40076;52.354;4.970;2022-10-16T02:10:16;7.90;;;1.85;;
54171;SDS011;40076;52.354;4.970;2022-10-16T02:12:44;6.63;;;1.42;;
54171;SDS011;40076;52.354;4.970;2022-10-16T02:15:15;4.15;;;1.73;;
54171;SDS011;40076;52.354;4.970;2022-10-16T02:17:40;5.22;;;1.77;;
54171;SDS011;40076;52.354;4.970;2022-10-16T02:20:06;7.53;;;1.60;;
54171;SDS011;40076;52.354;4.970;2022-10-16T02:22:53;4.30;;;1.98;;
54171;SDS011;40076;52.354;4.970;2022-10-16T02:25:27;5.80;;;1.60;;
54171;SDS011;40076;52.354;4.970;2022-10-16T02:33:23;3.53;;;1.70;;
54171;SDS011;40076;52.354;4.970;2022-10-16T02:35:51;4.75;;;1.83;;
54171;SDS011;40076;52.354;4.970;2022-10-16T02:38:18;4.50;;;1.60;;
54171;SDS011;40076;52.354;4.970;2022-10-16T02:40:45;4.82;;;1.40;;
54171;SDS011;40076;52.354;4.970;2022-10-16T02:43:10;4.72;;;1.92;;
54171;SDS011;40076;52.354;4.970;2022-10-16T02:45:36;4.97;;;1.58;;
54171;SDS011;40076;52.354;4.970;2022-10-16T02:48:02;3.38;;;1.60;;
54171;SDS011;40076;52.354;4.970;2022-10-16T02:50:27;4.63;;;1.50;;
54171;SDS011;40076;52.354;4.970;2022-10-16T02:52:52;3.28;;;1.60;;
54171;SDS011;40076;52.354;4.970;2022-10-16T02:55:17;3.70;;;1.63;;
54171;SDS011;40076;52.354;4.970;2022-10-16T02:57:43;4.30;;;1.65;;
54171;SDS011;40076;52.354;4.970;2022-10-16T03:00:09;3.75;;;2.03;;
54171;SDS011;40076;52.354;4.970;2022-10-16T03:02:36;4.20;;;2.10;;
54171;SDS011;40076;52.354;4.970;2022-10-16T03:05:01;6.80;;;2.70;;
54171;SDS011;40076;52.354;4.970;2022-10-16T03:07:27;4.85;;;2.58;;
54171;SDS011;40076;52.354;4.970;2022-10-16T03:09:52;7.00;;;2.60;;
54171;SDS011;40076;52.354;4.970;2022-10-16T03:12:17;6.93;;;2.33;;
54171;SDS011;40076;52.354;4.970;2022-10-16T03:14:43;6.03;;;2.85;;
54171;SDS011;40076;52.354;4.970;2022-10-16T03:17:08;6.53;;;2.55;;
54171;SDS011;40076;52.354;4.970;2022-10-16T03:19:33;5.47;;;3.00;;
54171;SDS011;40076;52.354;4.970;2022-10-16T03:21:59;5.70;;;2.88;;
54171;SDS011;40076;52.354;4.970;2022-10-16T03:24:25;7.07;;;2.70;;
54171;SDS011;40076;52.354;4.970;2022-10-16T03:26:50;6.53;;;3.33;;
54171;SDS011;40076;52.354;4.970;2022-10-16T03:29:15;5.95;;;3.10;;
54171;SDS011;40076;52.354;4.970;2022-10-16T03:31:40;5.68;;;2.88;;
54171;SDS011;40076;52.354;4.970;2022-10-16T03:34:06;7.32;;;2.75;;
54171;SDS011;40076;52.354;4.970;2022-10-16T03:36:31;4.60;;;2.80;;
54171;SDS011;40076;52.354;4.970;2022-10-16T03:38:56;5.22;;;2.85;;
54171;SDS011;40076;52.354;4.970;2022-10-16T03:41:22;6.15;;;3.17;;
54171;SDS011;40076;52.354;4.970;2022-10-16T03:43:47;5.22;;;2.72;;
54171;SDS011;40076;52.354;4.970;2022-10-16T03:46:12;7.28;;;2.72;;
54171;SDS011;40076;52.354;4.970;2022-10-16T03:48:38;4.80;;;2.67;;
54171;SDS011;40076;52.354;4.970;2022-10-16T03:51:04;7.93;;;2.50;;
54171;SDS011;40076;52.354;4.970;2022-10-16T03:53:30;6.22;;;2.67;;
54171;SDS011;40076;52.354;4.970;2022-10-16T03:55:55;5.93;;;2.70;;
54171;SDS011;40076;52.354;4.970;2022-10-16T03:58:20;5.13;;;2.50;;
54171;SDS011;40076;52.354;4.970;2022-10-16T04:00:46;5.47;;;2.60;;
54171;SDS011;40076;52.354;4.970;2022-10-16T04:03:14;6.50;;;2.63;;
54171;SDS011;40076;52.354;4.970;2022-10-16T04:05:40;6.45;;;2.67;;
54171;SDS011;40076;52.354;4.970;2022-10-16T04:08:05;7.30;;;2.90;;
54171;SDS011;40076;52.354;4.970;2022-10-16T04:10:31;7.45;;;2.80;;
54171;SDS011;40076;52.354;4.970;2022-10-16T04:12:56;4.93;;;2.47;;
54171;SDS011;40076;52.354;4.970;2022-10-16T04:15:22;4.90;;;2.33;;
54171;SDS011;40076;52.354;4.970;2022-10-16T04:17:48;4.97;;;2.35;;
54171;SDS011;40076;52.354;4.970;2022-10-16T04:20:14;6.63;;;2.42;;
54171;SDS011;40076;52.354;4.970;2022-10-16T04:22:39;7.57;;;2.40;;
54171;SDS011;40076;52.354;4.970;2022-10-16T04:25:04;6.07;;;2.38;;
54171;SDS011;40076;52.354;4.970;2022-10-16T04:27:30;8.90;;;2.70;;
54171;SDS011;40076;52.354;4.970;2022-10-16T04:29:56;4.15;;;2.67;;
54171;SDS011;40076;52.354;4.970;2022-10-16T04:32:25;7.57;;;2.30;;
54171;SDS011;40076;52.354;4.970;2022-10-16T04:34:51;7.05;;;2.17;;
54171;SDS011;40076;52.354;4.970;2022-10-16T04:37:16;6.80;;;2.53;;
54171;SDS011;40076;52.354;4.970;2022-10-16T04:39:41;6.25;;;2.30;;
54171;SDS011;40076;52.354;4.970;2022-10-16T04:42:07;7.35;;;2.10;;
54171;SDS011;40076;52.354;4.970;2022-10-16T04:44:32;6.47;;;2.72;;
54171;SDS011;40076;52.354;4.970;2022-10-16T04:46:57;5.05;;;2.20;;
54171;SDS011;40076;52.354;4.970;2022-10-16T04:49:22;4.75;;;2.30;;
54171;SDS011;40076;52.354;4.970;2022-10-16T04:51:48;6.55;;;2.50;;
54171;SDS011;40076;52.354;4.970;2022-10-16T04:54:13;5.95;;;2.15;;
54171;SDS011;40076;52.354;4.970;2022-10-16T04:56:38;4.30;;;2.00;;
54171;SDS011;40076;52.354;4.970;2022-10-16T04:59:13;6.03;;;2.50;;
54171;SDS011;40076;52.354;4.970;2022-10-16T05:01:41;5.75;;;2.20;;
54171;SDS011;40076;52.354;4.970;2022-10-16T05:04:07;5.57;;;2.13;;
54171;SDS011;40076;52.354;4.970;2022-10-16T05:06:32;6.75;;;2.50;;
54171;SDS011;40076;52.354;4.970;2022-10-16T05:08:58;3.88;;;2.10;;
54171;SDS011;40076;52.354;4.970;2022-10-16T05:11:23;8.18;;;2.50;;
54171;SDS011;40076;52.354;4.970;2022-10-16T05:13:48;7.78;;;2.45;;
54171;SDS011;40076;52.354;4.970;2022-10-16T05:16:14;6.93;;;2.60;;
54171;SDS011;40076;52.354;4.970;2022-10-16T05:18:39;8.43;;;2.72;;
54171;SDS011;40076;52.354;4.970;2022-10-16T05:21:05;5.75;;;2.50;;
54171;SDS011;40076;52.354;4.970;2022-10-16T05:23:30;6.90;;;2.60;;
54171;SDS011;40076;52.354;4.970;2022-10-16T05:25:56;7.22;;;2.63;;
54171;SDS011;40076;52.354;4.970;2022-10-16T05:28:23;5.70;;;2.47;;
54171;SDS011;40076;52.354;4.970;2022-10-16T05:30:49;5.40;;;2.60;;
54171;SDS011;40076;52.354;4.970;2022-10-16T05:33:14;9.57;;;2.72;;
54171;SDS011;40076;52.354;4.970;2022-10-16T05:35:39;7.72;;;2.63;;
54171;SDS011;40076;52.354;4.970;2022-10-16T05:38:05;6.55;;;2.75;;
54171;SDS011;40076;52.354;4.970;2022-10-16T05:40:30;6.28;;;2.78;;
54171;SDS011;40076;52.354;4.970;2022-10-16T05:42:55;6.85;;;2.50;;
54171;SDS011;40076;52.354;4.970;2022-10-16T05:45:21;6.22;;;2.33;;
54171;SDS011;40076;52.354;4.970;2022-10-16T05:47:46;9.32;;;2.55;;
54171;SDS011;40076;52.354;4.970;2022-10-16T05:50:11;11.35;;;3.45;;
54171;SDS011;40076;52.354;4.970;2022-10-16T05:52:37;7.50;;;2.72;;
54171;SDS011;40076;52.354;4.970;2022-10-16T05:55:02;7.43;;;3.10;;
54171;SDS011;40076;52.354;4.970;2022-10-16T05:57:28;6.53;;;2.63;;
54171;SDS011;40076;52.354;4.970;2022-10-16T05:59:53;6.05;;;2.95;;
54171;SDS011;40076;52.354;4.970;2022-10-16T06:02:18;7.60;;;3.17;;
54171;SDS011;40076;52.354;4.970;2022-10-16T06:04:44;7.65;;;2.72;;
54171;SDS011;40076;52.354;4.970;2022-10-16T06:07:09;7.53;;;3.00;;
54171;SDS011;40076;52.354;4.970;2022-10-16T06:09:34;8.90;;;2.88;;
54171;SDS011;40076;52.354;4.970;2022-10-16T06:12:00;7.15;;;2.30;;
54171;SDS011;40076;52.354;4.970;2022-10-16T06:14:25;7.63;;;2.72;;
54171;SDS011;40076;52.354;4.970;2022-10-16T06:16:50;6.53;;;2.40;;
54171;SDS011;40076;52.354;4.970;2022-10-16T06:19:16;5.50;;;2.45;;
54171;SDS011;40076;52.354;4.970;2022-10-16T06:21:42;7.07;;;2.22;;
54171;SDS011;40076;52.354;4.970;2022-10-16T06:24:08;7.05;;;2.40;;
54171;SDS011;40076;52.354;4.970;2022-10-16T06:26:33;9.73;;;3.13;;
54171;SDS011;40076;52.354;4.970;2022-10-16T06:28:59;6.35;;;2.55;;
54171;SDS011;40076;52.354;4.970;2022-10-16T06:31:25;9.77;;;2.63;;
54171;SDS011;40076;52.354;4.970;2022-10-16T06:33:53;6.70;;;2.35;;
54171;SDS011;40076;52.354;4.970;2022-10-16T06:36:19;8.27;;;2.58;;
54171;SDS011;40076;52.354;4.970;2022-10-16T06:38:45;7.95;;;3.17;;
54171;SDS011;40076;52.354;4.970;2022-10-16T06:41:11;9.60;;;3.00;;
54171;SDS011;40076;52.354;4.970;2022-10-16T06:43:38;8.23;;;2.75;;
54171;SDS011;40076;52.354;4.970;2022-10-16T06:46:04;7.28;;;3.60;;
54171;SDS011;40076;52.354;4.970;2022-10-16T06:48:32;12.85;;;2.92;;
54171;SDS011;40076;52.354;4.970;2022-10-16T06:50:58;7.65;;;2.78;;
54171;SDS011;40076;52.354;4.970;2022-10-16T06:53:26;8.45;;;3.40;;
54171;SDS011;40076;52.354;4.970;2022-10-16T06:55:54;9.75;;;3.10;;
54171;SDS011;40076;52.354;4.970;2022-10-16T06:58:19;9.32;;;2.78;;
54171;SDS011;40076;52.354;4.970;2022-10-16T07:00:45;6.70;;;2.90;;
54171;SDS011;40076;52.354;4.970;2022-10-16T07:03:11;8.07;;;3.20;;
54171;SDS011;40076;52.354;4.970;2022-10-16T07:05:38;7.70;;;3.35;;
54171;SDS011;40076;52.354;4.970;2022-10-16T07:08:06;7.63;;;2.90;;
54171;SDS011;40076;52.354;4.970;2022-10-16T07:10:33;8.80;;;2.80;;
54171;SDS011;40076;52.354;4.970;2022-10-16T07:12:58;8.30;;;2.78;;
54171;SDS011;40076;52.354;4.970;2022-10-16T07:15:24;11.00;;;2.85;;
54171;SDS011;40076;52.354;4.970;2022-10-16T07:17:50;7.93;;;2.72;;
54171;SDS011;40076;52.354;4.970;2022-10-16T07:20:15;7.75;;;2.60;;
54171;SDS011;40076;52.354;4.970;2022-10-16T07:22:40;9.32;;;2.63;;
54171;SDS011;40076;52.354;4.970;2022-10-16T07:25:06;6.85;;;2.55;;
54171;SDS011;40076;52.354;4.970;2022-10-16T07:27:32;6.80;;;2.67;;
54171;SDS011;40076;52.354;4.970;2022-10-16T07:29:57;6.30;;;2.67;;
54171;SDS011;40076;52.354;4.970;2022-10-16T07:32:22;9.13;;;2.40;;
54171;SDS011;40076;52.354;4.970;2022-10-16T07:34:48;7.03;;;2.28;;
54171;SDS011;40076;52.354;4.970;2022-10-16T07:37:14;9.15;;;2.00;;
54171;SDS011;40076;52.354;4.970;2022-10-16T07:39:39;8.25;;;2.33;;
54171;SDS011;40076;52.354;4.970;2022-10-16T07:42:04;5.15;;;1.95;;
54171;SDS011;40076;52.354;4.970;2022-10-16T07:44:29;10.80;;;2.25;;
54171;SDS011;40076;52.354;4.970;2022-10-16T07:46:55;9.32;;;2.83;;
54171;SDS011;40076;52.354;4.970;2022-10-16T07:49:20;7.72;;;2.20;;
54171;SDS011;40076;52.354;4.970;2022-10-16T07:51:46;5.20;;;2.35;;
54171;SDS011;40076;52.354;4.970;2022-10-16T07:54:11;6.85;;;1.63;;
54171;SDS011;40076;52.354;4.970;2022-10-16T07:56:36;7.70;;;2.00;;
54171;SDS011;40076;52.354;4.970;2022-10-16T07:59:02;8.57;;;2.03;;
54171;SDS011;40076;52.354;4.970;2022-10-16T08:01:27;6.40;;;1.80;;
54171;SDS011;40076;52.354;4.970;2022-10-16T08:03:52;8.20;;;1.80;;
54171;SDS011;40076;52.354;4.970;2022-10-16T08:06:19;8.65;;;1.85;;
54171;SDS011;40076;52.354;4.970;2022-10-16T08:08:45;8.60;;;1.92;;
54171;SDS011;40076;52.354;4.970;2022-10-16T08:11:12;7.55;;;1.95;;
54171;SDS011;40076;52.354;4.970;2022-10-16T08:13:39;11.38;;;1.92;;
54171;SDS011;40076;52.354;4.970;2022-10-16T08:16:04;8.77;;;2.30;;
54171;SDS011;40076;52.354;4.970;2022-10-16T08:18:39;8.38;;;2.00;;
54171;SDS011;40076;52.354;4.970;2022-10-16T08:21:05;11.52;;;1.95;;
54171;SDS011;40076;52.354;4.970;2022-10-16T08:23:31;9.20;;;2.13;;
54171;SDS011;40076;52.354;4.970;2022-10-16T08:26:01;8.20;;;1.95;;
54171;SDS011;40076;52.354;4.970;2022-10-16T08:28:29;9.13;;;2.05;;
54171;SDS011;40076;52.354;4.970;2022-10-16T08:30:54;11.55;;;2.15;;
54171;SDS011;40076;52.354;4.970;2022-10-16T08:33:21;6.90;;;1.95;;
54171;SDS011;40076;52.354;4.970;2022-10-16T08:35:50;11.98;;;1.88;;
54171;SDS011;40076;52.354;4.970;2022-10-16T08:38:18;12.77;;;2.28;;
54171;SDS011;40076;52.354;4.970;2022-10-16T08:40:43;11.93;;;2.20;;
54171;SDS011;40076;52.354;4.970;2022-10-16T08:43:16;13.40;;;2.65;;
54171;SDS011;40076;52.354;4.970;2022-10-16T08:48:50;7.82;;;2.25;;
54171;SDS011;40076;52.354;4.970;2022-10-16T08:51:22;7.13;;;2.00;;
54171;SDS011;40076;52.354;4.970;2022-10-16T08:54:03;13.20;;;2.85;;
54171;SDS011;40076;52.354;4.970;2022-10-16T08:56:30;9.20;;;1.98;;
54171;SDS011;40076;52.354;4.970;2022-10-16T08:58:57;13.93;;;3.08;;
54171;SDS011;40076;52.354;4.970;2022-10-16T09:01:24;12.65;;;2.38;;
54171;SDS011;40076;52.354;4.970;2022-10-16T09:10:00;9.48;;;2.00;;
54171;SDS011;40076;52.354;4.970;2022-10-16T09:12:45;13.57;;;2.75;;
54171;SDS011;40076;52.354;4.970;2022-10-16T09:15:24;13.93;;;2.77;;
54171;SDS011;40076;52.354;4.970;2022-10-16T09:18:00;12.75;;;2.72;;
54171;SDS011;40076;52.354;4.970;2022-10-16T09:23:19;9.00;;;2.10;;
54171;SDS011;40076;52.354;4.970;2022-10-16T09:25:50;11.98;;;2.40;;
54171;SDS011;40076;52.354;4.970;2022-10-16T09:28:16;12.85;;;2.28;;
54171;SDS011;40076;52.354;4.970;2022-10-16T09:30:43;9.20;;;2.60;;
54171;SDS011;40076;52.354;4.970;2022-10-16T09:33:11;12.88;;;2.30;;
54171;SDS011;40076;52.354;4.970;2022-10-16T09:35:39;11.65;;;2.33;;
54171;SDS011;40076;52.354;4.970;2022-10-16T09:38:07;13.43;;;2.97;;
54171;SDS011;40076;52.354;4.970;2022-10-16T09:40:34;15.98;;;2.70;;
54171;SDS011;40076;52.354;4.970;2022-10-16T09:46:20;13.43;;;3.10;;
54171;SDS011;40076;52.354;4.970;2022-10-16T09:48:49;19.17;;;2.75;;
54171;SDS011;40076;52.354;4.970;2022-10-16T09:51:21;15.57;;;3.38;;
54171;SDS011;40076;52.354;4.970;2022-10-16T09:53:53;14.80;;;2.45;;
54171;SDS011;40076;52.354;4.970;2022-10-16T09:56:39;12.02;;;2.28;;
54171;SDS011;40076;52.354;4.970;2022-10-16T09:59:12;16.92;;;2.40;;
54171;SDS011;40076;52.354;4.970;2022-10-16T10:01:49;14.93;;;2.42;;
54171;SDS011;40076;52.354;4.970;2022-10-16T10:04:17;14.38;;;2.40;;
54171;SDS011;40076;52.354;4.970;2022-10-16T10:06:48;12.75;;;2.20;;
54171;SDS011;40076;52.354;4.970;2022-10-16T10:09:26;14.52;;;2.33;;
54171;SDS011;40076;52.354;4.970;2022-10-16T10:12:04;13.52;;;2.58;;
54171;SDS011;40076;52.354;4.970;2022-10-16T10:17:11;12.30;;;2.60;;
54171;SDS011;40076;52.354;4.970;2022-10-16T10:19:44;13.63;;;2.30;;
54171;SDS011;40076;52.354;4.970;2022-10-16T10:22:17;16.27;;;2.28;;
54171;SDS011;40076;52.354;4.970;2022-10-16T10:25:29;13.57;;;2.67;;
54171;SDS011;40076;52.354;4.970;2022-10-16T10:33:44;18.70;;;2.30;;
54171;SDS011;40076;52.354;4.970;2022-10-16T10:36:34;13.65;;;2.30;;
54171;SDS011;40076;52.354;4.970;2022-10-16T10:44:30;14.20;;;2.47;;
54171;SDS011;40076;52.354;4.970;2022-10-16T11:00:59;16.38;;;2.13;;
54171;SDS011;40076;52.354;4.970;2022-10-16T11:03:54;11.55;;;1.70;;
54171;SDS011;40076;52.354;4.970;2022-10-16T11:06:35;13.23;;;2.13;;
54171;SDS011;40076;52.354;4.970;2022-10-16T11:15:12;11.35;;;2.47;;
54171;SDS011;40076;52.354;4.970;2022-10-16T11:17:42;15.70;;;2.70;;
54171;SDS011;40076;52.354;4.970;2022-10-16T11:22:43;15.55;;;2.55;;
54171;SDS011;40076;52.354;4.970;2022-10-16T11:25:23;15.95;;;2.38;;
54171;SDS011;40076;52.354;4.970;2022-10-16T11:27:56;10.65;;;1.80;;
54171;SDS011;40076;52.354;4.970;2022-10-16T11:30:31;14.45;;;1.92;;
54171;SDS011;40076;52.354;4.970;2022-10-16T11:36:17;16.77;;;2.47;;
54171;SDS011;40076;52.354;4.970;2022-10-16T11:46:30;9.23;;;1.77;;
54171;SDS011;40076;52.354;4.970;2022-10-16T11:49:03;10.43;;;1.33;;
54171;SDS011;40076;52.354;4.970;2022-10-16T11:51:36;11.63;;;1.83;;
54171;SDS011;40076;52.354;4.970;2022-10-16T11:57:09;11.45;;;2.42;;
54171;SDS011;40076;52.354;4.970;2022-10-16T11:59:42;10.68;;;2.00;;
54171;SDS011;40076;52.354;4.970;2022-10-16T12:04:58;9.68;;;1.67;;
54171;SDS011;40076;52.354;4.970;2022-10-16T12:10:27;11.00;;;1.50;;
54171;SDS011;40076;52.354;4.970;2022-10-16T12:12:54;11.63;;;1.85;;
54171;SDS011;40076;52.354;4.970;2022-10-16T12:17:45;7.60;;;1.80;;
54171;SDS011;40076;52.354;4.970;2022-10-16T12:22:36;8.97;;;1.63;;
54171;SDS011;40076;52.354;4.970;2022-10-16T12:25:19;12.40;;;1.60;;
54171;SDS011;40076;52.354;4.970;2022-10-16T12:27:53;9.25;;;2.08;;
54171;SDS011;40076;52.354;4.970;2022-10-16T12:30:22;8.45;;;1.60;;
54171;SDS011;40076;52.354;4.970;2022-10-16T12:32:59;7.05;;;1.63;;
54171;SDS011;40076;52.354;4.970;2022-10-16T12:35:28;7.72;;;1.35;;
54171;SDS011;40076;52.354;4.970;2022-10-16T12:41:07;8.40;;;1.33;;
54171;SDS011;40076;52.354;4.970;2022-10-16T12:46:03;8.13;;;1.50;;
54171;SDS011;40076;52.354;4.970;2022-10-16T12:48:31;11.88;;;1.65;;
54171;SDS011;40076;52.354;4.970;2022-10-16T12:50:56;9.25;;;1.83;;
54171;SDS011;40076;52.354;4.970;2022-10-16T12:53:25;8.68;;;1.73;;
54171;SDS011;40076;52.354;4.970;2022-10-16T13:01:37;14.93;;;2.17;;
54171;SDS011;40076;52.354;4.970;2022-10-16T13:04:15;7.25;;;1.50;;
54171;SDS011;40076;52.354;4.970;2022-10-16T13:06:56;11.18;;;1.92;;
54171;SDS011;40076;52.354;4.970;2022-10-16T13:15:35;10.93;;;2.42;;
54171;SDS011;40076;52.354;4.970;2022-10-16T13:18:16;9.70;;;1.30;;
54171;SDS011;40076;52.354;4.970;2022-10-16T13:21:08;11.93;;;1.50;;
54171;SDS011;40076;52.354;4.970;2022-10-16T13:23:48;9.25;;;2.13;;
54171;SDS011;40076;52.354;4.970;2022-10-16T13:26:41;11.63;;;1.98;;
54171;SDS011;40076;52.354;4.970;2022-10-16T13:32:17;10.52;;;1.90;;
54171;SDS011;40076;52.354;4.970;2022-10-16T13:34:45;9.68;;;1.75;;
54171;SDS011;40076;52.354;4.970;2022-10-16T13:37:21;10.02;;;1.58;;
54171;SDS011;40076;52.354;4.970;2022-10-16T13:39:48;14.00;;;1.77;;
54171;SDS011;40076;52.354;4.970;2022-10-16T13:42:19;11.52;;;1.63;;
54171;SDS011;40076;52.354;4.970;2022-10-16T13:44:50;10.27;;;1.73;;
54171;SDS011;40076;52.354;4.970;2022-10-16T13:47:18;12.77;;;2.08;;
54171;SDS011;40076;52.354;4.970;2022-10-16T13:49:46;11.27;;;2.13;;
54171;SDS011;40076;52.354;4.970;2022-10-16T13:52:23;13.38;;;1.95;;
54171;SDS011;40076;52.354;4.970;2022-10-16T13:54:48;11.10;;;1.67;;
54171;SDS011;40076;52.354;4.970;2022-10-16T13:57:14;11.13;;;1.83;;
54171;SDS011;40076;52.354;4.970;2022-10-16T13:59:40;12.68;;;2.10;;
54171;SDS011;40076;52.354;4.970;2022-10-16T14:04:44;10.20;;;1.85;;
54171;SDS011;40076;52.354;4.970;2022-10-16T14:07:13;11.77;;;1.83;;
54171;SDS011;40076;52.354;4.970;2022-10-16T14:09:43;11.52;;;1.98;;
54171;SDS011;40076;52.354;4.970;2022-10-16T14:12:14;11.73;;;1.60;;
54171;SDS011;40076;52.354;4.970;2022-10-16T14:14:41;11.05;;;2.22;;
54171;SDS011;40076;52.354;4.970;2022-10-16T14:17:16;8.20;;;1.40;;
54171;SDS011;40076;52.354;4.970;2022-10-16T14:19:48;14.00;;;1.83;;
54171;SDS011;40076;52.354;4.970;2022-10-16T14:22:25;9.73;;;2.00;;
54171;SDS011;40076;52.354;4.970;2022-10-16T14:24:51;10.48;;;1.65;;
54171;SDS011;40076;52.354;4.970;2022-10-16T14:30:01;10.80;;;1.77;;
54171;SDS011;40076;52.354;4.970;2022-10-16T14:32:34;8.52;;;1.65;;
54171;SDS011;40076;52.354;4.970;2022-10-16T14:34:59;11.15;;;2.25;;
54171;SDS011;40076;52.354;4.970;2022-10-16T14:37:26;11.38;;;1.58;;
54171;SDS011;40076;52.354;4.970;2022-10-16T14:39:53;10.25;;;1.75;;
54171;SDS011;40076;52.354;4.970;2022-10-16T14:42:20;9.43;;;1.65;;
54171;SDS011;40076;52.354;4.970;2022-10-16T14:44:49;7.15;;;1.58;;
54171;SDS011;40076;52.354;4.970;2022-10-16T14:47:18;6.55;;;1.75;;
54171;SDS011;40076;52.354;4.970;2022-10-16T14:49:49;10.02;;;1.60;;
54171;SDS011;40076;52.354;4.970;2022-10-16T14:52:15;8.30;;;1.55;;
54171;SDS011;40076;52.354;4.970;2022-10-16T14:54:40;15.27;;;2.42;;
54171;SDS011;40076;52.354;4.970;2022-10-16T14:57:13;11.50;;;1.90;;
54171;SDS011;40076;52.354;4.970;2022-10-16T14:59:42;10.15;;;1.80;;
54171;SDS011;40076;52.354;4.970;2022-10-16T15:04:47;11.82;;;2.17;;
54171;SDS011;40076;52.354;4.970;2022-10-16T15:07:13;13.32;;;2.10;;
54171;SDS011;40076;52.354;4.970;2022-10-16T15:09:39;10.80;;;2.05;;
54171;SDS011;40076;52.354;4.970;2022-10-16T15:12:04;10.63;;;2.10;;
54171;SDS011;40076;52.354;4.970;2022-10-16T15:14:30;12.10;;;2.17;;
54171;SDS011;40076;52.354;4.970;2022-10-16T15:16:55;10.63;;;1.80;;
54171;SDS011;40076;52.354;4.970;2022-10-16T15:19:20;13.48;;;2.53;;
54171;SDS011;40076;52.354;4.970;2022-10-16T15:21:46;11.57;;;2.40;;
54171;SDS011;40076;52.354;4.970;2022-10-16T15:24:12;13.40;;;2.90;;
54171;SDS011;40076;52.354;4.970;2022-10-16T15:26:38;13.82;;;3.72;;
54171;SDS011;40076;52.354;4.970;2022-10-16T15:29:04;16.42;;;3.97;;
54171;SDS011;40076;52.354;4.970;2022-10-16T15:31:29;13.02;;;3.65;;
54171;SDS011;40076;52.354;4.970;2022-10-16T15:33:55;11.73;;;2.40;;
54171;SDS011;40076;52.354;4.970;2022-10-16T15:36:29;16.27;;;2.78;;
54171;SDS011;40076;52.354;4.970;2022-10-16T15:38:58;12.33;;;2.67;;
54171;SDS011;40076;52.354;4.970;2022-10-16T15:41:24;9.25;;;1.85;;
54171;SDS011;40076;52.354;4.970;2022-10-16T15:43:49;11.27;;;2.83;;
54171;SDS011;40076;52.354;4.970;2022-10-16T15:46:15;11.52;;;2.33;;
54171;SDS011;40076;52.354;4.970;2022-10-16T15:48:43;9.90;;;2.17;;
54171;SDS011;40076;52.354;4.970;2022-10-16T15:51:08;10.93;;;2.20;;
54171;SDS011;40076;52.354;4.970;2022-10-16T15:53:34;13.48;;;2.22;;
54171;SDS011;40076;52.354;4.970;2022-10-16T15:56:06;15.63;;;3.60;;
54171;SDS011;40076;52.354;4.970;2022-10-16T15:58:33;12.20;;;2.67;;
54171;SDS011;40076;52.354;4.970;2022-10-16T16:01:00;13.68;;;2.45;;
54171;SDS011;40076;52.354;4.970;2022-10-16T16:03:26;11.40;;;2.50;;
54171;SDS011;40076;52.354;4.970;2022-10-16T16:05:52;15.82;;;2.92;;
54171;SDS011;40076;52.354;4.970;2022-10-16T16:08:18;14.55;;;3.13;;
54171;SDS011;40076;52.354;4.970;2022-10-16T16:10:43;13.70;;;2.97;;
54171;SDS011;40076;52.354;4.970;2022-10-16T16:13:09;13.27;;;2.33;;
54171;SDS011;40076;52.354;4.970;2022-10-16T16:15:36;10.43;;;2.47;;
54171;SDS011;40076;52.354;4.970;2022-10-16T16:18:03;9.45;;;2.50;;
54171;SDS011;40076;52.354;4.970;2022-10-16T16:20:30;11.63;;;2.90;;
54171;SDS011;40076;52.354;4.970;2022-10-16T16:22:56;13.57;;;2.38;;
54171;SDS011;40076;52.354;4.970;2022-10-16T16:25:21;13.82;;;2.75;;
54171;SDS011;40076;52.354;4.970;2022-10-16T16:27:47;12.35;;;2.15;;
54171;SDS011;40076;52.354;4.970;2022-10-16T16:30:12;13.63;;;2.40;;
54171;SDS011;40076;52.354;4.970;2022-10-16T16:32:37;13.60;;;2.55;;
54171;SDS011;40076;52.354;4.970;2022-10-16T16:35:03;9.52;;;2.70;;
54171;SDS011;40076;52.354;4.970;2022-10-16T16:37:29;9.52;;;2.33;;
54171;SDS011;40076;52.354;4.970;2022-10-16T16:39:55;11.07;;;2.70;;
54171;SDS011;40076;52.354;4.970;2022-10-16T16:42:23;12.85;;;2.70;;
54171;SDS011;40076;52.354;4.970;2022-10-16T16:44:52;10.02;;;2.78;;
54171;SDS011;40076;52.354;4.970;2022-10-16T16:47:17;14.23;;;2.78;;
54171;SDS011;40076;52.354;4.970;2022-10-16T16:49:46;14.45;;;3.25;;
54171;SDS011;40076;52.354;4.970;2022-10-16T16:52:12;15.95;;;2.70;;